Latest Weather Observations for Fort Denison

IDN60901

Issued at 8:21 pm EST Thursday 13 June 2024 (issued every 10 minutes, with the page automatically refreshed every 10 minutes)

About weather observations | Map of Sydney area stations | Latest observations for Sydney area | Other Formats
Station Details ID: 066022 Name: FORT DENISON Lat: -33.86 Lon: 151.23 Height: 5.0 m
Data from the previous 72 hours. | See also: Recent months for locations in New South Wales
Date/Time
EST
Temp
°C
App
Temp
°C
Dew
Point
°C
Rel
Hum
%
Delta-T
°C
Wind Press
QNH
hPa
Press
MSL
hPa
Rain since
9am
mm
Dir  Spd
km/h
Gust
km/h
Spd
kts
Gust
kts
13/08:00pm - - - - - WSW 15 22 8 12 - - -
13/07:30pm - - - - - WSW 15 20 8 11 - - -
13/07:00pm - - - - - W 17 24 9 13 - - -
13/06:30pm - - - - - WSW 11 19 6 10 - - -
13/06:00pm - - - - - W 20 28 11 15 - - -
13/05:30pm - - - - - W 15 24 8 13 - - -
13/05:00pm - - - - - SW 15 24 8 13 - - -
13/04:30pm - - - - - SW 15 22 8 12 - - -
13/04:00pm - - - - - SSW 9 19 5 10 - - -
13/03:30pm - - - - - SW 19 28 10 15 - - -
13/03:00pm - - - - - SSW 19 26 10 14 - - -
13/02:30pm - - - - - SSW 15 24 8 13 - - -
13/02:00pm - - - - - SSW 11 19 6 10 - - -
13/01:30pm - - - - - SW 9 17 5 9 - - -
13/01:00pm - - - - - WSW 13 20 7 11 - - -
13/12:30pm - - - - - WSW 17 26 9 14 - - -
13/12:00pm - - - - - W 20 28 11 15 - - -
13/11:30am - - - - - W 20 28 11 15 - - -
13/11:00am - - - - - W 20 30 11 16 - - -
13/10:30am - - - - - W 26 33 14 18 - - -
13/10:00am - - - - - W 30 33 16 18 - - -
13/09:30am - - - - - W 26 33 14 18 - - -
13/09:00am - - - - - W 28 33 15 18 - - -
13/08:30am - - - - - W 28 35 15 19 - - -
13/08:00am - - - - - W 26 32 14 17 - - -
13/07:30am - - - - - W 30 35 16 19 - - -
13/07:00am - - - - - W 30 37 16 20 - - -
13/06:30am - - - - - W 30 41 16 22 - - -
13/06:00am - - - - - W 28 37 15 20 - - -
13/05:30am - - - - - W 28 35 15 19 - - -
13/05:00am - - - - - W 26 33 14 18 - - -
13/04:30am - - - - - W 28 37 15 20 - - -
13/04:00am - - - - - W 28 39 15 21 - - -
13/03:30am - - - - - W 28 37 15 20 - - -
13/03:00am - - - - - W 28 35 15 19 - - -
13/02:30am - - - - - W 24 33 13 18 - - -
13/02:00am - - - - - W 24 30 13 16 - - -
13/01:30am - - - - - W 24 33 13 18 - - -
13/01:00am - - - - - W 26 33 14 18 - - -
13/12:30am - - - - - W 20 32 11 17 - - -
13/12:00am - - - - - W 22 28 12 15 - - -
 
Date/Time
EST
Temp
°C
App
Temp
°C
Dew
Point
°C
Rel
Hum
%
Delta-T
°C
Wind Press
QNH
hPa
Press
MSL
hPa
Rain since
9am
mm
Dir  Spd
km/h
Gust
km/h
Spd
kts
Gust
kts
12/11:30pm - - - - - W 20 28 11 15 - - -
12/11:00pm - - - - - W 20 30 11 16 - - -
12/10:30pm - - - - - W 20 28 11 15 - - -
12/10:00pm - - - - - W 20 33 11 18 - - -
12/09:30pm - - - - - WSW 17 28 9 15 - - -
12/09:00pm - - - - - WSW 20 32 11 17 - - -
12/08:30pm - - - - - WSW 22 35 12 19 - - -
12/08:00pm - - - - - SW 20 32 11 17 - - -
12/07:30pm - - - - - SW 19 32 10 17 - - -
12/07:00pm - - - - - SW 13 22 7 12 - - -
12/06:30pm - - - - - SW 13 22 7 12 - - -
12/06:00pm - - - - - SW 13 22 7 12 - - -
12/05:30pm - - - - - SSW 13 20 7 11 - - -
12/05:00pm - - - - - SSW 13 22 7 12 - - -
12/04:30pm - - - - - SSW 17 26 9 14 - - -
12/04:00pm - - - - - SSW 15 24 8 13 - - -
12/03:30pm - - - - - SSW 17 26 9 14 - - -
12/03:00pm - - - - - SSW 32 56 17 30 - - -
12/02:30pm - - - - - S 37 65 20 35 - - -
12/02:01pm - - - - - S 35 54 19 29 - - -
12/02:00pm - - - - - S 35 52 19 28 - - -
12/01:50pm - - - - - SSW 35 57 19 31 - - -
12/01:45pm - - - - - SSW 32 56 17 30 - - -
12/01:30pm - - - - - WSW 30 54 16 29 - - -
12/01:00pm - - - - - W 35 56 19 30 - - -
12/12:30pm - - - - - WSW 35 61 19 33 - - -
12/12:00pm - - - - - W 37 57 20 31 - - -
12/11:30am - - - - - W 46 76 25 41 - - -
12/11:00am - - - - - W 43 61 23 33 - - -
12/10:39am - - - - - WNW 24 46 13 25 - - -
12/10:35am - - - - - WNW 24 46 13 25 - - -
12/10:30am - - - - - W 19 26 10 14 - - -
12/10:00am - - - - - W 11 20 6 11 - - -
12/09:30am - - - - - W 13 19 7 10 - - -
12/09:00am - - - - - W 9 17 5 9 - - -
12/08:30am - - - - - WSW 6 9 3 5 - - -
12/08:00am - - - - - WSW 4 7 2 4 - - -
12/07:30am - - - - - W 7 9 4 5 - - -
12/07:00am - - - - - W 7 9 4 5 - - -
12/06:30am - - - - - WNW 11 13 6 7 - - -
12/06:00am - - - - - WSW 6 7 3 4 - - -
12/05:30am - - - - - W 6 9 3 5 - - -
12/05:00am - - - - - WSW 6 11 3 6 - - -
12/04:30am - - - - - WSW 2 6 1 3 - - -
12/04:00am - - - - - NW 4 7 2 4 - - -
12/03:30am - - - - - WNW 6 9 3 5 - - -
12/03:00am - - - - - SW 2 6 1 3 - - -
12/02:30am - - - - - WNW 9 15 5 8 - - -
12/02:00am - - - - - W 11 15 6 8 - - -
12/01:30am - - - - - NW 7 11 4 6 - - -
12/01:00am - - - - - WNW 4 11 2 6 - - -
12/12:30am - - - - - WNW 9 13 5 7 - - -
12/12:00am - - - - - WNW 15 20 8 11 - - -
 
Date/Time
EST
Temp
°C
App
Temp
°C
Dew
Point
°C
Rel
Hum
%
Delta-T
°C
Wind Press
QNH
hPa
Press
MSL
hPa
Rain since
9am
mm
Dir  Spd
km/h
Gust
km/h
Spd
kts
Gust
kts
11/11:30pm - - - - - W 9 15 5 8 - - -
11/11:00pm - - - - - NW 24 35 13 19 - - -
11/10:30pm - - - - - NW 24 32 13 17 - - -
11/10:00pm - - - - - WNW 19 32 10 17 - - -
11/09:30pm - - - - - NW 20 28 11 15 - - -
11/09:00pm - - - - - NW 22 33 12 18 - - -
11/08:48pm - - - - - NW 32 50 17 27 - - -
11/08:30pm - - - - - NNW 33 43 18 23 - - -
11/08:00pm - - - - - NNW 24 32 13 17 - - -
11/07:30pm - - - - - NNW 19 24 10 13 - - -
11/07:00pm - - - - - NNW 19 26 10 14 - - -
11/06:30pm - - - - - NW 11 22 6 12 - - -
11/06:00pm - - - - - NW 6 7 3 4 - - -
11/05:30pm - - - - - WNW 9 11 5 6 - - -
11/05:00pm - - - - - NW 9 13 5 7 - - -
11/04:30pm - - - - - WSW 9 13 5 7 - - -
11/04:00pm - - - - - SW 2 6 1 3 - - -
11/03:30pm - - - - - S 2 4 1 2 - - -
11/03:00pm - - - - - WNW 4 7 2 4 - - -
11/02:30pm - - - - - WNW 11 20 6 11 - - -
11/02:00pm - - - - - W 9 13 5 7 - - -
11/01:30pm - - - - - WNW 7 11 4 6 - - -
11/01:00pm - - - - - NW 13 15 7 8 - - -
11/12:30pm - - - - - WNW 15 20 8 11 - - -
11/12:00pm - - - - - W 11 13 6 7 - - -
11/11:30am - - - - - W 9 13 5 7 - - -
11/11:00am - - - - - W 15 19 8 10 - - -
11/10:30am - - - - - W 9 17 5 9 - - -
11/10:00am - - - - - W 11 15 6 8 - - -
11/09:30am - - - - - W 11 15 6 8 - - -
11/09:00am - - - - - W 15 19 8 10 - - -
11/08:30am - - - - - WNW 15 19 8 10 - - -
11/08:00am - - - - - WNW 11 15 6 8 - - -
11/07:30am - - - - - WNW 13 17 7 9 - - -
11/07:00am - - - - - W 17 22 9 12 - - -
11/06:30am - - - - - WNW 13 17 7 9 - - -
11/06:00am - - - - - W 15 20 8 11 - - -
11/05:30am - - - - - W 17 22 9 12 - - -
11/05:00am - - - - - W 19 24 10 13 - - -
11/04:30am - - - - - W 20 26 11 14 - - -
11/04:00am - - - - - W 19 22 10 12 - - -
11/03:30am - - - - - W 17 22 9 12 - - -
11/03:00am - - - - - WNW 13 19 7 10 - - -
11/02:30am - - - - - W 24 26 13 14 - - -
11/02:00am - - - - - W 20 24 11 13 - - -
11/01:30am - - - - - WNW 24 28 13 15 - - -
11/01:00am - - - - - WNW 19 22 10 12 - - -
11/12:30am - - - - - WNW 24 28 13 15 - - -
11/12:00am - - - - - WNW 20 24 11 13 - - -
 
Date/Time
EST
Temp
°C
App
Temp
°C
Dew
Point
°C
Rel
Hum
%
Delta-T
°C
Wind Press
QNH
hPa
Press
MSL
hPa
Rain since
9am
mm
Dir  Spd
km/h
Gust
km/h
Spd
kts
Gust
kts
10/11:30pm - - - - - WNW 19 20 10 11 - - -
10/11:00pm - - - - - WNW 19 20 10 11 - - -
10/10:30pm - - - - - WNW 17 20 9 11 - - -
10/10:00pm - - - - - WNW 17 22 9 12 - - -
10/09:30pm - - - - - WNW 13 15 7 8 - - -
10/09:00pm - - - - - WNW 7 11 4 6 - - -
10/08:30pm - - - - - W 7 11 4 6 - - -

Latest Capital City Observations: Canberra | Sydney | Melbourne | Brisbane | Adelaide | Perth | Hobart | Darwin

Other formats

Comma delimited format used in spreadsheet applications
http://www.bom.gov.au/fwo/IDN60901/IDN60901.94769.axf

JavaScript Object Notation format (JSON) in row-major order
http://www.bom.gov.au/fwo/IDN60901/IDN60901.94769.json

Data quality

Most of these data are generated automatically and are frequently updated. Quality checks on data are not normally performed. It is possible for incorrect values to appear. Refer to information at About Latest Weather Observations and please check the disclaimer before using these data.